Crew | Aerofun Virtual



 METAR AND TAF INFORMATION
METAR FOR EFLP
ADDS - METARS form results

(1937 UTC 21 July 2019)
Data provider http://aviationweather.gov/metar/data/
 
METAR text: EFLP 211920Z AUTO 00000KT CAVOK 18/11 Q1017
Conditions at: EFLP (LAPPEENRANTA , FI) observed 1920 UTC 21 July 2019
Temperature: 18.0°C (64°F)
Dewpoint: 11.0°C (52°F) [RH = 64%]
Pressure (altimeter): 30.03 inches Hg (1017.0 mb)
Winds: calm
Visibility: 6 or more miles (10+ km)
Ceiling: ceiling and visibility are OK
Clouds: unknown
Weather: no significant weather observed at this time

METAR text: EFLP 211850Z AUTO 13001KT CAVOK 20/11 Q1017
Conditions at: EFLP (LAPPEENRANTA , FI) observed 1850 UTC 21 July 2019
Temperature: 20.0°C (68°F)
Dewpoint: 11.0°C (52°F) [RH = 56%]
Pressure (altimeter): 30.03 inches Hg (1017.0 mb)
Winds: from the SE (130 degrees) at 1 MPH (1 knots; 0.5 m/s)
Visibility: 6 or more miles (10+ km)
Ceiling: ceiling and visibility are OK
Clouds: unknown
Weather: no significant weather observed at this time

 AIRPORT MAP

 RUNWAY INFORMATION
Runway 06 Runway length 8202 ft Runway width 197 ft
Runway elevation 348 ft Runway displaced threshold 0 ft Runway heading 67
Runway 24 Runway length 8202 ft Runway width 197 ft
Runway elevation 349 ft Runway displaced threshold 0 ft Runway heading 247

 AIRPORT FREQUENCIES
Type ATIS Name ATIS Frequency 112.5 MHZ
Type TWR Name TWR Frequency 119.7 MHZ

 AIRPORT NEAR NAVIGATION AIDS
Type NDB Name Ranta Frequency 392 KHZ
Type VOR-DME Name Vilmas Frequency 112500 KHZ